Time;durP1;ratioP1;P1;durP2;ratioP2;P2;SDS_P1;SDS_P2;PMS_P1;PMS_P2;Temp;Humidity;BMP_temperature;BMP_pressure;BME280_temperature;BME280_humidity;BME280_pressure;Samples;Min_cycle;Max_cycle;Signal;HPM_P1;HPM_P2
2021/12/26 00:01:34;;;;;;;5.45;3.58;;;-9.60;94.30;;;;;;4986949;28;20026;-80
2021/12/26 00:04:03;;;;;;;3.70;2.97;;;-9.50;94.20;;;;;;4993831;28;20487;-80
2021/12/26 00:06:29;;;;;;;4.40;2.42;;;-9.50;94.30;;;;;;4994213;28;20045;-79
2021/12/26 00:08:57;;;;;;;3.90;2.50;;;-9.50;94.30;;;;;;4994426;28;20057;-79
2021/12/26 00:11:24;;;;;;;6.25;4.00;;;-9.40;94.30;;;;;;4993099;28;20041;-79
2021/12/26 00:13:52;;;;;;;5.15;3.03;;;-9.40;94.50;;;;;;4981747;28;20026;-80
2021/12/26 00:16:19;;;;;;;4.72;3.58;;;-9.40;94.40;;;;;;4994327;28;20479;-80
2021/12/26 00:18:46;;;;;;;5.63;3.30;;;-9.40;94.50;;;;;;4994322;28;20027;-83
2021/12/26 00:21:19;;;;;;;6.30;3.22;;;-9.40;94.50;;;;;;4994390;28;20026;-80
2021/12/26 00:23:45;;;;;;;5.85;3.28;;;-9.40;94.50;;;;;;4994942;28;20073;-80
2021/12/26 00:26:11;;;;;;;6.32;2.92;;;-9.30;94.60;;;;;;4995542;28;20084;-80
2021/12/26 00:28:38;;;;;;;5.03;3.45;;;-9.30;94.60;;;;;;4994183;28;20105;-80
2021/12/26 00:31:04;;;;;;;7.53;3.28;;;-9.30;94.70;;;;;;4994227;28;20019;-79
2021/12/26 00:33:32;;;;;;;4.57;2.92;;;-9.30;94.80;;;;;;4993901;28;20038;-80
2021/12/26 00:35:59;;;;;;;7.15;3.08;;;-9.20;94.90;;;;;;4993879;28;20065;-79
2021/12/26 00:38:26;;;;;;;4.68;2.47;;;-9.20;95.00;;;;;;4984649;28;20456;-81
2021/12/26 00:40:52;;;;;;;3.30;2.13;;;-9.10;95.20;;;;;;4993799;28;20034;-79
2021/12/26 00:43:18;;;;;;;6.63;3.20;;;-9.00;95.30;;;;;;4993852;28;20022;-82
2021/12/26 00:45:44;;;;;;;3.67;2.28;;;-8.90;95.40;;;;;;4994392;28;20029;-79
2021/12/26 00:48:10;;;;;;;3.85;2.78;;;-8.80;95.40;;;;;;4994644;28;20105;-80
2021/12/26 00:50:39;;;;;;;6.03;2.13;;;-8.70;95.50;;;;;;4994507;28;20442;-80
2021/12/26 00:53:06;;;;;;;5.88;2.40;;;-8.70;95.40;;;;;;4994692;28;20022;-82
2021/12/26 00:55:32;;;;;;;4.60;2.33;;;-8.60;95.40;;;;;;4994178;28;20018;-79
2021/12/26 00:57:57;;;;;;;5.78;3.45;;;-8.60;95.40;;;;;;4993492;28;20022;-80
2021/12/26 01:00:30;;;;;;;5.95;3.28;;;-8.50;95.50;;;;;;4993884;28;20033;-81
2021/12/26 01:02:59;;;;;;;5.90;3.53;;;-8.50;95.60;;;;;;4993821;28;20078;-80
2021/12/26 01:05:26;;;;;;;4.38;3.00;;;-8.40;95.60;;;;;;4994386;28;20026;-81
2021/12/26 01:10:20;;;;;;;5.10;2.83;;;-8.30;95.60;;;;;;4974639;28;19969;-81
2021/12/26 01:12:46;;;;;;;5.68;4.18;;;-8.30;95.40;;;;;;4974291;28;20491;-80
2021/12/26 01:15:13;;;;;;;4.55;3.75;;;-8.30;95.60;;;;;;4974517;28;20039;-80
2021/12/26 01:17:43;;;;;;;3.72;2.28;;;-8.30;95.40;;;;;;4974965;28;20437;-80
2021/12/26 01:20:13;;;;;;;4.22;2.80;;;-8.20;95.40;;;;;;4973425;28;20026;-81
2021/12/26 01:22:39;;;;;;;6.07;2.83;;;-8.20;95.40;;;;;;4976601;28;20027;-80
2021/12/26 01:25:07;;;;;;;5.25;3.38;;;-8.20;95.30;;;;;;4994096;28;20022;-81
2021/12/26 01:27:33;;;;;;;5.07;3.30;;;-8.20;95.30;;;;;;4992118;28;20027;-81
2021/12/26 01:29:59;;;;;;;4.03;3.47;;;-8.20;95.00;;;;;;4995099;28;20148;-80
2021/12/26 01:32:27;;;;;;;3.58;2.78;;;-8.20;94.80;;;;;;4984801;28;20058;-81
2021/12/26 01:34:52;;;;;;;10.18;3.60;;;-8.20;94.70;;;;;;4979732;28;20035;-80
2021/12/26 01:37:18;;;;;;;5.95;3.47;;;-8.30;94.80;;;;;;4982616;28;20061;-81
2021/12/26 01:39:44;;;;;;;4.30;3.13;;;-8.40;94.90;;;;;;4980690;28;20086;-80
2021/12/26 01:42:10;;;;;;;8.23;2.75;;;-8.40;95.00;;;;;;4987420;28;20022;-80
2021/12/26 01:44:38;;;;;;;6.50;3.00;;;-8.40;95.00;;;;;;4998101;28;20026;-81
2021/12/26 01:47:04;;;;;;;8.10;4.63;;;-8.50;95.10;;;;;;4997719;28;20042;-79
2021/12/26 01:49:31;;;;;;;3.75;2.85;;;-8.50;95.20;;;;;;4997335;28;20029;-80
2021/12/26 01:52:00;;;;;;;4.05;3.15;;;-8.50;95.20;;;;;;4997557;28;20025;-78
2021/12/26 01:54:32;;;;;;;5.82;3.25;;;-8.50;95.30;;;;;;4997343;28;20038;-80
2021/12/26 01:56:59;;;;;;;5.95;3.70;;;-8.50;95.40;;;;;;4997356;28;20383;-79
2021/12/26 01:59:26;;;;;;;4.55;2.72;;;-8.50;95.50;;;;;;4997465;28;20395;-80
2021/12/26 02:01:55;;;;;;;5.18;3.97;;;-8.50;95.60;;;;;;4995688;28;20025;-79
2021/12/26 02:04:22;;;;;;;2.90;1.98;;;-8.40;95.60;;;;;;4997307;28;20046;-78
2021/12/26 02:06:47;;;;;;;6.13;3.22;;;-8.40;95.60;;;;;;4996843;28;20054;-79
2021/12/26 02:09:13;;;;;;;8.57;3.15;;;-8.40;95.60;;;;;;5012111;28;20057;-80
2021/12/26 02:11:40;;;;;;;6.13;3.90;;;-8.30;95.70;;;;;;4997546;28;20037;-79
2021/12/26 02:14:06;;;;;;;4.30;3.53;;;-8.30;95.80;;;;;;4997244;28;20124;-81
2021/12/26 02:16:32;;;;;;;4.55;3.17;;;-8.30;95.80;;;;;;4997298;28;20455;-79
2021/12/26 02:18:58;;;;;;;5.57;3.70;;;-8.20;96.00;;;;;;4996489;28;20403;-81
2021/12/26 02:29:53;;;;;;;5.65;3.75;;;-8.10;96.00;;;;;;5018124;28;20080;-80
2021/12/26 02:32:19;;;;;;;7.43;4.45;;;-8.10;96.00;;;;;;5020458;28;20034;-79
2021/12/26 02:34:44;;;;;;;6.18;4.13;;;-8.10;96.00;;;;;;5016653;28;20455;-79
2021/12/26 02:37:10;;;;;;;5.13;3.13;;;-8.10;95.90;;;;;;5014002;28;20569;-80
2021/12/26 02:39:36;;;;;;;6.13;3.33;;;-8.10;95.90;;;;;;5014721;28;20558;-80
2021/12/26 02:42:03;;;;;;;5.35;3.15;;;-8.10;95.90;;;;;;5012611;28;20080;-79
2021/12/26 02:44:28;;;;;;;5.13;3.95;;;-8.10;96.20;;;;;;4997057;28;20422;-81
2021/12/26 02:46:54;;;;;;;5.35;3.05;;;-8.10;96.00;;;;;;5014216;28;20030;-79
2021/12/26 02:49:25;;;;;;;3.40;3.10;;;-8.10;96.00;;;;;;5016096;28;20025;-79
2021/12/26 02:51:52;;;;;;;5.82;4.20;;;-8.10;96.00;;;;;;5014510;28;20038;-78
2021/12/26 02:54:18;;;;;;;4.15;3.63;;;-8.10;96.10;;;;;;5013676;28;20042;-79
2021/12/26 02:56:44;;;;;;;4.97;2.92;;;-8.10;96.10;;;;;;5013821;28;20029;-78
2021/12/26 02:59:10;;;;;;;5.22;3.47;;;-8.10;96.20;;;;;;4997191;28;20050;-78
2021/12/26 03:01:36;;;;;;;6.65;4.05;;;-8.20;96.30;;;;;;4994542;28;20026;-78
2021/12/26 03:04:04;;;;;;;4.47;2.95;;;-8.10;96.40;;;;;;5011234;28;20034;-80
2021/12/26 03:06:44;;;;;;;7.07;4.97;;;-8.10;96.50;;;;;;4995629;28;20114;-79
2021/12/26 03:09:10;;;;;;;4.38;2.78;;;-8.10;96.50;;;;;;4995595;28;20030;-79
2021/12/26 03:11:38;;;;;;;3.88;2.65;;;-8.00;96.50;;;;;;4995697;28;20046;-79
2021/12/26 03:14:05;;;;;;;5.35;3.70;;;-8.00;96.60;;;;;;4995510;28;20377;-79
2021/12/26 03:16:31;;;;;;;7.60;3.00;;;-8.00;96.60;;;;;;4995648;28;20050;-80
2021/12/26 03:18:58;;;;;;;9.27;2.97;;;-8.00;96.70;;;;;;4996401;28;20076;-80
2021/12/26 03:21:24;;;;;;;;;;;-8.00;96.70;;;;;;4996535;28;20022;-81
2021/12/26 03:23:50;;;;;;;4.30;3.38;;;-8.00;96.70;;;;;;4994098;28;19912;-79
2021/12/26 03:26:16;;;;;;;5.95;3.88;;;-8.00;96.70;;;;;;4997164;28;20046;-83
2021/12/26 03:28:41;;;;;;;5.53;3.90;;;-8.00;96.80;;;;;;4995334;28;20081;-80
2021/12/26 03:31:07;;;;;;;4.60;2.58;;;-8.00;96.80;;;;;;4995810;28;20030;-80
2021/12/26 03:33:34;;;;;;;7.45;4.07;;;-8.00;96.90;;;;;;4995382;28;20034;-80
2021/12/26 03:36:00;;;;;;;8.27;4.32;;;-7.90;97.00;;;;;;4995529;28;20022;-79
2021/12/26 03:38:28;;;;;;;6.30;4.18;;;-7.90;97.10;;;;;;4995594;28;20412;-81
2021/12/26 03:40:55;;;;;;;8.90;4.18;;;-7.90;97.20;;;;;;4995164;28;20026;-78
2021/12/26 03:43:22;;;;;;;5.30;3.40;;;-7.90;97.30;;;;;;4996000;28;20069;-81
2021/12/26 03:45:50;;;;;;;5.38;3.28;;;-7.90;97.40;;;;;;4995792;28;20384;-80
2021/12/26 03:48:20;;;;;;;6.82;4.35;;;-7.90;97.50;;;;;;4995329;28;20029;-80
2021/12/26 03:50:46;;;;;;;5.30;3.05;;;-7.80;97.70;;;;;;4994814;28;20050;-80
2021/12/26 03:53:13;;;;;;;3.65;2.90;;;-7.80;97.60;;;;;;4994624;28;20053;-80
2021/12/26 03:55:39;;;;;;;5.03;3.63;;;-7.80;97.60;;;;;;4994882;28;20030;-79
2021/12/26 03:58:07;;;;;;;5.53;3.73;;;-7.80;97.50;;;;;;4994822;28;20388;-81
2021/12/26 04:00:34;;;;;;;6.50;3.47;;;-7.80;97.50;;;;;;4994728;28;20292;-80
2021/12/26 04:03:00;;;;;;;4.85;3.33;;;-7.80;97.50;;;;;;4995020;28;20045;-79
2021/12/26 04:05:25;;;;;;;7.15;4.47;;;-7.70;97.50;;;;;;4993894;28;20032;-81
2021/12/26 04:07:51;;;;;;;4.40;3.38;;;-7.70;97.50;;;;;;4994768;28;20435;-80
2021/12/26 04:10:18;;;;;;;5.93;4.00;;;-7.70;97.40;;;;;;4994508;28;20026;-79
2021/12/26 04:12:47;;;;;;;5.15;3.08;;;-7.70;97.40;;;;;;4994656;28;20431;-76
2021/12/26 04:15:16;;;;;;;5.78;3.08;;;-7.70;97.50;;;;;;4994614;28;20121;-79
2021/12/26 04:17:42;;;;;;;4.75;3.50;;;-7.60;97.50;;;;;;4994391;28;20096;-79
2021/12/26 04:20:09;;;;;;;4.15;2.83;;;-7.60;97.50;;;;;;4995327;28;20084;-78
2021/12/26 04:22:35;;;;;;;5.53;3.65;;;-7.60;97.50;;;;;;5007719;28;20037;-77
2021/12/26 04:25:01;;;;;;;5.25;3.53;;;-7.50;97.50;;;;;;5012035;28;20550;-79
2021/12/26 04:27:27;;;;;;;3.30;2.22;;;-7.50;97.40;;;;;;4995444;28;20026;-78
2021/12/26 04:29:53;;;;;;;4.22;3.33;;;-7.50;97.30;;;;;;4994368;28;20088;-76
2021/12/26 04:32:20;;;;;;;6.53;3.83;;;-7.50;97.40;;;;;;4994969;28;20030;-79
2021/12/26 04:34:46;;;;;;;6.40;3.88;;;-7.50;97.40;;;;;;4994136;28;20030;-79
2021/12/26 04:37:12;;;;;;;4.40;3.03;;;-7.40;97.40;;;;;;4994166;28;20044;-80
2021/12/26 04:39:37;;;;;;;2.38;1.98;;;-7.40;97.40;;;;;;4994169;28;20033;-80
2021/12/26 04:42:04;;;;;;;6.88;4.30;;;-7.40;97.40;;;;;;4994094;28;20019;-80
2021/12/26 04:44:30;;;;;;;6.47;2.88;;;-7.40;97.40;;;;;;4994188;28;20097;-79
2021/12/26 04:46:56;;;;;;;4.28;2.78;;;-7.40;97.30;;;;;;4994118;28;20108;-80
2021/12/26 04:49:22;;;;;;;5.93;3.72;;;-7.40;97.30;;;;;;4994163;28;20030;-79
2021/12/26 04:51:48;;;;;;;6.88;2.70;;;-7.30;97.30;;;;;;4993824;28;20026;-80
2021/12/26 04:54:14;;;;;;;6.90;5.00;;;-7.30;97.30;;;;;;4993749;28;20149;-80
2021/12/26 04:56:39;;;;;;;7.72;3.72;;;-7.30;97.30;;;;;;5008868;28;20034;-79
2021/12/26 04:59:06;;;;;;;6.10;3.20;;;-7.30;97.20;;;;;;4994096;28;20484;-80
2021/12/26 05:01:32;;;;;;;3.13;2.53;;;-7.30;97.30;;;;;;4992522;28;20026;-80
2021/12/26 05:03:58;;;;;;;6.15;3.80;;;-7.30;97.30;;;;;;4994176;28;20033;-80
2021/12/26 05:06:27;;;;;;;4.95;3.80;;;-7.20;97.50;;;;;;4993074;28;20022;-79
2021/12/26 05:08:52;;;;;;;6.05;3.17;;;-7.20;97.40;;;;;;4992868;28;20150;-80
2021/12/26 05:11:19;;;;;;;5.07;3.25;;;-7.20;97.30;;;;;;4994607;28;20035;-79
2021/12/26 05:13:44;;;;;;;4.65;2.72;;;-7.20;97.20;;;;;;4993739;28;20446;-79
2021/12/26 05:16:10;;;;;;;5.85;3.40;;;-7.20;97.00;;;;;;4994145;28;20064;-80
2021/12/26 05:18:36;;;;;;;3.53;2.45;;;-7.10;97.00;;;;;;4993513;28;20026;-81
2021/12/26 05:21:03;;;;;;;11.07;3.83;;;-7.10;97.00;;;;;;4994015;28;20433;-80
2021/12/26 05:23:29;;;;;;;4.05;2.40;;;-7.10;97.10;;;;;;4993431;28;20054;-80
2021/12/26 05:25:55;;;;;;;5.28;3.45;;;-7.00;97.20;;;;;;4993612;28;20089;-80
2021/12/26 05:28:21;;;;;;;7.70;3.58;;;-6.90;97.30;;;;;;4994360;28;20026;-80
2021/12/26 05:30:47;;;;;;;4.18;3.20;;;-6.90;97.30;;;;;;4993656;28;20038;-79
2021/12/26 05:33:13;;;;;;;4.10;2.65;;;-6.80;97.20;;;;;;5008417;28;20022;-80
2021/12/26 05:35:39;;;;;;;5.75;3.30;;;-6.70;97.00;;;;;;4993380;28;20092;-79
2021/12/26 05:38:04;;;;;;;6.30;3.58;;;-6.70;96.90;;;;;;4994369;28;20060;-81
2021/12/26 05:40:30;;;;;;;6.15;3.33;;;-6.60;96.80;;;;;;4994274;28;20026;-79
2021/12/26 05:42:56;;;;;;;5.32;3.28;;;-6.60;96.80;;;;;;4993087;28;20360;-80
2021/12/26 05:45:22;;;;;;;7.97;4.50;;;-6.50;96.80;;;;;;4993261;28;20076;-81
2021/12/26 05:47:48;;;;;;;6.50;3.75;;;-6.50;96.60;;;;;;4992219;28;20026;-80
2021/12/26 05:50:17;;;;;;;5.93;4.18;;;-6.50;96.60;;;;;;4997051;28;20031;-81
2021/12/26 05:52:44;;;;;;;7.25;3.92;;;-6.40;96.60;;;;;;5000843;28;20538;-82
2021/12/26 05:55:10;;;;;;;6.95;3.72;;;-6.40;96.60;;;;;;4997634;28;20042;-81
2021/12/26 05:57:36;;;;;;;8.02;3.13;;;-6.40;96.70;;;;;;4993596;28;20054;-81
2021/12/26 06:00:07;;;;;;;3.85;2.88;;;-6.30;96.60;;;;;;4993279;28;20026;-81
2021/12/26 06:02:32;;;;;;;5.70;3.70;;;-6.30;96.50;;;;;;4973616;28;20040;-79
2021/12/26 06:04:58;;;;;;;4.60;3.33;;;-6.30;96.40;;;;;;4974187;28;20039;-82
2021/12/26 06:07:24;;;;;;;3.53;2.60;;;-6.30;96.30;;;;;;4972030;28;20035;-83
2021/12/26 06:09:49;;;;;;;8.02;3.08;;;-6.30;96.40;;;;;;4971857;28;20035;-81
2021/12/26 06:12:16;;;;;;;5.85;3.38;;;-6.30;96.20;;;;;;4972112;28;20042;-82
2021/12/26 06:14:42;;;;;;;3.90;2.75;;;-6.30;96.30;;;;;;4971819;28;20531;-81
2021/12/26 06:17:09;;;;;;;8.00;3.80;;;-6.30;96.30;;;;;;4974092;28;20039;-80
2021/12/26 06:19:35;;;;;;;4.72;3.05;;;-6.40;96.30;;;;;;4975707;28;20477;-81
2021/12/26 06:22:02;;;;;;;7.20;3.83;;;-6.40;96.40;;;;;;4976032;28;20038;-83
2021/12/26 06:24:29;;;;;;;;;;;-6.40;96.40;;;;;;4975959;28;20027;-78
2021/12/26 06:26:55;;;;;;;3.72;2.97;;;-6.40;96.30;;;;;;4977353;28;19941;-81
2021/12/26 06:29:21;;;;;;;6.78;2.65;;;-6.50;96.10;;;;;;4959269;28;20102;-84
2021/12/26 06:31:47;;;;;;;6.38;2.70;;;-6.50;96.20;;;;;;4974788;28;20073;-80
2021/12/26 06:34:14;;;;;;;6.75;3.35;;;-6.50;96.30;;;;;;4974963;28;20428;-81
2021/12/26 06:36:39;;;;;;;8.23;4.13;;;-6.50;96.30;;;;;;4975944;28;20113;-81
2021/12/26 06:39:05;;;;;;;6.60;3.15;;;-6.40;96.30;;;;;;4977814;28;20360;-81
2021/12/26 06:41:31;;;;;;;5.97;3.38;;;-6.40;96.30;;;;;;4978729;28;20508;-81
2021/12/26 06:43:57;;;;;;;6.72;4.05;;;-6.40;96.40;;;;;;4996755;28;20383;-83
2021/12/26 06:46:23;;;;;;;5.68;4.15;;;-6.30;96.50;;;;;;4995368;28;20041;-83
2021/12/26 06:48:49;;;;;;;4.78;3.42;;;-6.30;96.70;;;;;;4996558;28;20037;-82
2021/12/26 06:51:15;;;;;;;5.93;3.22;;;-6.30;96.70;;;;;;4997504;28;20030;-81
2021/12/26 06:53:41;;;;;;;5.07;3.17;;;-6.20;96.70;;;;;;4997124;28;20039;-79
2021/12/26 06:56:07;;;;;;;4.43;2.67;;;-6.20;96.80;;;;;;4998648;28;20487;-81
2021/12/26 06:58:33;;;;;;;5.57;4.00;;;-6.20;96.90;;;;;;4999379;28;20037;-80
2021/12/26 07:00:59;;;;;;;3.83;2.75;;;-6.20;96.80;;;;;;4998992;28;20027;-80
2021/12/26 07:03:24;;;;;;;7.80;4.00;;;-6.20;96.70;;;;;;4997229;28;20030;-79
2021/12/26 07:05:50;;;;;;;4.55;2.72;;;-6.20;96.70;;;;;;4994854;28;20115;-81
2021/12/26 07:08:16;;;;;;;5.57;3.50;;;-6.10;96.60;;;;;;4996422;28;20026;-81
2021/12/26 07:10:44;;;;;;;5.78;4.05;;;-6.10;96.60;;;;;;4997463;28;20464;-81
2021/12/26 07:13:09;;;;;;;5.40;3.95;;;-6.10;96.70;;;;;;4998000;28;20118;-82
2021/12/26 07:15:35;;;;;;;3.95;2.45;;;-6.10;96.60;;;;;;4998162;28;20062;-81
2021/12/26 07:18:01;;;;;;;7.72;3.55;;;-6.10;96.60;;;;;;5003811;28;20022;-80
2021/12/26 07:20:27;;;;;;;6.10;2.17;;;-6.00;96.20;;;;;;5013768;28;20034;-80
2021/12/26 07:22:53;;;;;;;3.05;2.60;;;-6.00;96.20;;;;;;5005742;28;20500;-81
2021/12/26 07:25:19;;;;;;;6.20;3.05;;;-6.00;95.90;;;;;;4996859;28;20476;-81
2021/12/26 07:27:44;;;;;;;3.03;2.10;;;-6.10;95.80;;;;;;4995832;28;20030;-82
2021/12/26 07:30:11;;;;;;;3.95;2.17;;;-6.10;96.00;;;;;;4997439;28;20018;-82
2021/12/26 07:32:37;;;;;;;4.63;3.07;;;-6.10;95.80;;;;;;4996086;28;20049;-82
2021/12/26 07:35:03;;;;;;;4.90;2.85;;;-6.10;95.50;;;;;;4995371;28;20280;-80
2021/12/26 07:37:29;;;;;;;4.18;2.75;;;-6.10;95.60;;;;;;5010342;28;20054;-81
2021/12/26 07:39:55;;;;;;;7.78;3.50;;;-6.10;95.70;;;;;;4995323;28;20053;-79
2021/12/26 07:42:22;;;;;;;7.78;2.58;;;-6.10;95.70;;;;;;4994906;28;20026;-80
2021/12/26 07:44:47;;;;;;;4.25;2.90;;;-6.00;95.70;;;;;;4995144;28;20121;-80
2021/12/26 07:47:14;;;;;;;5.88;2.97;;;-6.00;95.90;;;;;;4995343;28;20061;-82
2021/12/26 07:49:40;;;;;;;5.40;3.88;;;-6.00;95.90;;;;;;4996694;28;20027;-81
2021/12/26 07:52:34;;;;;;;5.10;3.17;;;-6.00;95.80;;;;;;4993814;28;20057;-81
2021/12/26 07:55:01;;;;;;;9.90;3.55;;;-6.00;96.00;;;;;;4994421;28;20050;-79
2021/12/26 07:57:27;;;;;;;5.30;2.88;;;-5.90;95.90;;;;;;4994758;28;20467;-80
2021/12/26 07:59:52;;;;;;;7.97;4.10;;;-5.90;96.00;;;;;;4995036;28;20068;-80
2021/12/26 08:02:20;;;;;;;7.03;3.97;;;-5.80;96.00;;;;;;5009918;28;20119;-80
2021/12/26 08:04:47;;;;;;;3.88;2.38;;;-5.70;95.80;;;;;;4995522;28;20023;-79
2021/12/26 08:07:14;;;;;;;4.53;3.53;;;-5.70;95.40;;;;;;4995014;28;20030;-80
2021/12/26 08:09:39;;;;;;;6.93;3.70;;;-5.60;95.30;;;;;;4994729;28;20070;-80
2021/12/26 08:12:06;;;;;;;4.30;2.50;;;-5.60;95.40;;;;;;4994792;28;20089;-81
2021/12/26 08:14:31;;;;;;;6.03;2.20;;;-5.60;95.40;;;;;;4994389;28;20062;-80
2021/12/26 08:16:57;;;;;;;8.57;3.20;;;-5.50;95.30;;;;;;5009477;28;20064;-83
2021/12/26 08:19:23;;;;;;;5.55;3.05;;;-5.50;95.30;;;;;;4994659;28;20506;-82
2021/12/26 08:21:52;;;;;;;6.68;3.80;;;-5.50;95.10;;;;;;4994243;28;20023;-82
2021/12/26 08:24:18;;;;;;;5.57;3.45;;;-5.50;95.10;;;;;;4994651;28;20018;-82
2021/12/26 08:26:49;;;;;;;5.55;3.15;;;-5.40;95.10;;;;;;4994442;28;20026;-81
2021/12/26 08:29:15;;;;;;;5.45;3.30;;;-5.50;95.00;;;;;;4994179;28;20025;-81
2021/12/26 08:31:41;;;;;;;4.73;3.40;;;-5.40;94.90;;;;;;4994460;28;20034;-81
2021/12/26 08:34:07;;;;;;;6.32;3.53;;;-5.40;95.10;;;;;;4994087;28;20034;-80
2021/12/26 08:36:33;;;;;;;3.75;3.30;;;-5.40;95.10;;;;;;4992506;28;20025;-81
2021/12/26 08:38:59;;;;;;;4.53;2.85;;;-5.40;95.00;;;;;;4983522;28;20396;-80
2021/12/26 08:41:28;;;;;;;3.40;3.05;;;-5.40;94.80;;;;;;4990631;28;20026;-81
2021/12/26 08:43:53;;;;;;;4.78;3.55;;;-5.40;94.80;;;;;;4992374;28;20026;-82
2021/12/26 08:46:19;;;;;;;5.05;3.53;;;-5.40;94.70;;;;;;4993588;28;20072;-81
2021/12/26 08:48:45;;;;;;;6.00;3.58;;;-5.40;94.90;;;;;;4993313;28;20102;-81
2021/12/26 08:51:11;;;;;;;5.57;3.40;;;-5.40;94.80;;;;;;4992848;28;20023;-81
2021/12/26 08:53:36;;;;;;;8.10;3.67;;;-5.40;94.90;;;;;;4992437;28;20467;-80
2021/12/26 08:56:04;;;;;;;6.60;3.72;;;-5.40;95.00;;;;;;4986933;28;20023;-82
2021/12/26 08:58:29;;;;;;;6.32;3.60;;;-5.40;95.00;;;;;;4993579;28;20057;-80
2021/12/26 09:00:55;;;;;;;8.90;3.30;;;-5.40;95.10;;;;;;4991647;28;20558;-81
2021/12/26 09:03:21;;;;;;;5.63;3.17;;;-5.30;95.10;;;;;;4993979;28;20077;-82
2021/12/26 09:05:47;;;;;;;3.58;2.53;;;-5.30;95.10;;;;;;4995478;28;20357;-80
2021/12/26 09:08:13;;;;;;;6.72;3.20;;;-5.30;95.20;;;;;;4999985;28;20026;-82
2021/12/26 09:10:41;;;;;;;12.07;4.63;;;-5.30;95.40;;;;;;4990248;28;20323;-82
2021/12/26 09:13:08;;;;;;;6.25;4.18;;;-5.20;95.40;;;;;;4999192;28;20025;-83
2021/12/26 09:15:34;;;;;;;5.07;2.78;;;-5.10;95.50;;;;;;4997903;28;20483;-82
2021/12/26 09:18:08;;;;;;;6.05;3.25;;;-5.10;95.50;;;;;;4992401;28;20019;-80
2021/12/26 09:20:34;;;;;;;8.82;3.90;;;-5.00;95.40;;;;;;4993908;28;20356;-80
2021/12/26 09:22:59;;;;;;;4.72;3.67;;;-5.00;95.20;;;;;;4994446;28;20029;-84
2021/12/26 09:25:25;;;;;;;7.40;3.63;;;-4.90;95.20;;;;;;5001535;28;20025;-83
2021/12/26 09:27:52;;;;;;;8.60;4.13;;;-4.90;95.10;;;;;;4993117;28;20071;-83
2021/12/26 09:30:18;;;;;;;9.63;4.07;;;-4.90;94.80;;;;;;4994685;28;20030;-83
2021/12/26 09:32:44;;;;;;;4.20;2.42;;;-4.80;94.60;;;;;;4984906;28;20029;-83
2021/12/26 09:35:10;;;;;;;5.47;4.18;;;-4.90;94.60;;;;;;4995660;28;20034;-81
2021/12/26 09:37:38;;;;;;;6.63;3.50;;;-4.90;94.90;;;;;;4995045;28;20042;-79
2021/12/26 09:40:05;;;;;;;6.43;3.30;;;-4.90;94.90;;;;;;4984700;28;20018;-80
2021/12/26 09:42:31;;;;;;;4.23;2.77;;;-4.90;95.00;;;;;;4996517;28;20105;-76
2021/12/26 09:45:00;;;;;;;7.65;3.67;;;-4.90;95.00;;;;;;4975563;28;20437;-76
2021/12/26 09:47:27;;;;;;;7.55;3.53;;;-4.90;94.90;;;;;;4991983;28;20031;-76
2021/12/26 09:49:53;;;;;;;4.78;3.80;;;-4.90;94.90;;;;;;4993071;28;20557;-81
2021/12/26 09:52:19;;;;;;;5.07;3.47;;;-4.90;94.90;;;;;;4991548;28;20369;-78
2021/12/26 09:54:45;;;;;;;6.57;3.72;;;-4.80;94.90;;;;;;5010975;28;20034;-77
2021/12/26 09:57:12;;;;;;;8.32;3.65;;;-4.80;94.80;;;;;;4996956;28;20149;-78
2021/12/26 09:59:38;;;;;;;6.40;4.10;;;-4.70;94.60;;;;;;4997000;28;20101;-77
2021/12/26 10:02:13;;;;;;;5.60;3.83;;;-4.70;94.70;;;;;;4996781;28;20018;-79
2021/12/26 10:04:40;;;;;;;4.53;3.65;;;-4.60;94.70;;;;;;4996331;28;20496;-79
2021/12/26 10:07:12;;;;;;;5.05;2.97;;;-4.60;94.70;;;;;;4995107;28;20491;-80
2021/12/26 10:09:49;;;;;;;5.75;3.55;;;-4.60;94.80;;;;;;4996347;28;20391;-82
2021/12/26 10:12:19;;;;;;;3.92;2.88;;;-4.50;94.80;;;;;;4996187;28;20033;-75
2021/12/26 10:14:51;;;;;;;6.30;3.80;;;-4.50;94.50;;;;;;5008223;28;20120;-83
2021/12/26 10:17:23;;;;;;;7.75;3.75;;;-4.50;94.20;;;;;;4995613;28;20499;-79
2021/12/26 10:19:52;;;;;;;5.63;3.45;;;-4.50;94.20;;;;;;4989088;28;20027;-80
2021/12/26 10:22:26;;;;;;;4.60;3.75;;;-4.50;94.20;;;;;;5002839;28;20022;-80
2021/12/26 10:24:54;;;;;;;5.95;3.85;;;-4.50;94.10;;;;;;4987072;28;20025;-78
2021/12/26 10:27:30;;;;;;;4.82;3.85;;;-4.50;94.10;;;;;;4996751;28;20028;-80
2021/12/26 10:29:58;;;;;;;3.58;2.80;;;-4.50;93.90;;;;;;4995507;28;20014;-77
2021/12/26 10:32:31;;;;;;;6.40;3.78;;;-4.60;93.90;;;;;;4995876;28;20084;-80
2021/12/26 10:35:05;;;;;;;4.40;3.30;;;-4.60;94.10;;;;;;4995802;28;20030;-81
2021/12/26 10:37:35;;;;;;;7.57;4.07;;;-4.60;94.20;;;;;;4995758;28;20047;-80
2021/12/26 10:40:05;;;;;;;5.70;3.92;;;-4.70;94.10;;;;;;4996611;28;20365;-80
2021/12/26 10:42:35;;;;;;;9.60;4.63;;;-4.70;94.20;;;;;;4995748;28;20491;-81
2021/12/26 10:45:08;;;;;;;6.90;3.65;;;-4.70;94.00;;;;;;5002755;28;20112;-84
2021/12/26 10:47:36;;;;;;;5.38;3.97;;;-4.70;94.10;;;;;;5000832;28;20029;-82
2021/12/26 10:50:09;;;;;;;7.93;4.63;;;-4.70;94.10;;;;;;4996811;28;20080;-85
2021/12/26 10:52:41;;;;;;;7.53;4.13;;;-4.80;94.20;;;;;;5012884;28;20503;-85
2021/12/26 10:55:14;;;;;;;7.05;4.13;;;-4.70;94.70;;;;;;4997736;28;20109;-79
2021/12/26 10:57:48;;;;;;;7.88;3.53;;;-4.70;94.40;;;;;;4995295;28;20015;-81
2021/12/26 11:00:21;;;;;;;6.95;4.80;;;-4.70;94.60;;;;;;4995858;28;20046;-81
2021/12/26 11:03:01;;;;;;;6.43;3.25;;;-4.70;94.20;;;;;;4992652;28;20118;-80
2021/12/26 11:05:38;;;;;;;4.63;4.10;;;-4.70;94.10;;;;;;4995603;28;20097;-79
2021/12/26 11:08:07;;;;;;;5.03;2.72;;;-4.70;94.30;;;;;;4995483;28;20026;-80
2021/12/26 11:10:42;;;;;;;9.25;3.97;;;-4.70;94.50;;;;;;4995252;28;20030;-80
2021/12/26 11:13:20;;;;;;;7.97;3.97;;;-4.70;94.70;;;;;;4994668;28;20021;-80
2021/12/26 11:15:46;;;;;;;8.82;3.80;;;-4.70;94.80;;;;;;4987505;28;20035;-80
2021/12/26 11:18:17;;;;;;;5.13;3.22;;;-4.70;94.80;;;;;;4995402;28;20029;-82
2021/12/26 11:21:01;;;;;;;5.30;3.55;;;-4.70;94.70;;;;;;4996024;28;20432;-81
2021/12/26 11:23:30;;;;;;;7.75;3.67;;;-4.70;95.00;;;;;;4995391;28;20026;-79
2021/12/26 11:26:04;;;;;;;6.78;4.10;;;-4.70;94.90;;;;;;4984356;28;20023;-82
2021/12/26 11:28:35;;;;;;;7.65;4.22;;;-4.70;95.10;;;;;;4994661;28;20021;-82
2021/12/26 11:31:07;;;;;;;8.25;3.72;;;-4.70;95.10;;;;;;4995408;28;20046;-81
2021/12/26 11:33:34;;;;;;;7.07;3.90;;;-4.70;95.10;;;;;;4995185;28;20018;-82
2021/12/26 11:36:04;;;;;;;5.95;4.00;;;-4.70;95.10;;;;;;4995937;28;20109;-81
2021/12/26 11:38:30;;;;;;;5.47;3.17;;;-4.70;95.00;;;;;;4994992;28;20093;-81
2021/12/26 11:41:00;;;;;;;6.05;3.35;;;-4.70;95.00;;;;;;4996117;28;20034;-82
2021/12/26 11:43:58;;;;;;;6.70;4.05;;;-4.70;94.90;;;;;;4989938;28;20160;-82
2021/12/26 11:46:45;;;;;;;5.57;3.25;;;-4.80;95.10;;;;;;4990586;28;20023;-80
2021/12/26 11:49:43;;;;;;;5.97;4.03;;;-4.80;95.10;;;;;;5001624;28;20026;-82
2021/12/26 11:52:11;;;;;;;4.70;3.70;;;-4.80;95.30;;;;;;4988175;28;20036;-84
2021/12/26 11:54:40;;;;;;;7.93;3.88;;;-4.80;95.50;;;;;;4983167;28;20034;-83
2021/12/26 11:57:12;;;;;;;6.78;4.45;;;-4.80;95.70;;;;;;4996262;28;20019;-85
2021/12/26 12:00:11;;;;;;;5.78;3.40;;;-4.80;95.70;;;;;;4997742;28;20078;-84
2021/12/26 12:02:43;;;;;;;4.95;3.95;;;-4.80;95.60;;;;;;4996982;28;20026;-82
2021/12/26 12:05:38;;;;;;;5.95;3.25;;;-4.80;95.80;;;;;;4995390;28;20114;-81
2021/12/26 12:08:06;;;;;;;17.88;5.13;;;-4.80;95.60;;;;;;4994063;28;20022;-80
2021/12/26 12:10:54;;;;;;;3.92;2.33;;;-4.90;95.60;;;;;;4994229;28;20018;-82
2021/12/26 12:13:23;;;;;;;5.97;3.33;;;-4.90;95.70;;;;;;4992835;28;20030;-82
2021/12/26 12:15:53;;;;;;;3.92;3.45;;;-4.90;95.80;;;;;;4997329;28;20042;-77
2021/12/26 12:18:26;;;;;;;11.20;5.72;;;-4.90;95.90;;;;;;4993928;28;20550;-79
2021/12/26 12:21:24;;;;;;;6.50;4.10;;;-4.90;96.10;;;;;;4994626;28;20034;-78
2021/12/26 12:24:07;;;;;;;6.35;3.38;;;-4.80;96.10;;;;;;4989902;28;20496;-81
2021/12/26 12:26:45;;;;;;;7.05;3.67;;;-4.80;95.70;;;;;;4994245;28;20054;-81
2021/12/26 12:29:33;;;;;;;6.57;4.05;;;-4.80;95.70;;;;;;4992269;28;20038;-79
2021/12/26 12:32:07;;;;;;;7.10;3.65;;;-4.80;95.60;;;;;;4992734;28;20053;-77
2021/12/26 12:34:54;;;;;;;5.43;2.90;;;-4.80;95.80;;;;;;4992493;28;20034;-77
2021/12/26 12:37:42;;;;;;;12.80;4.38;;;-4.80;95.90;;;;;;4996645;28;20050;-83
2021/12/26 12:40:19;;;;;;;7.10;3.45;;;-4.90;95.90;;;;;;4989936;28;20039;-83
2021/12/26 12:43:06;;;;;;;8.18;3.78;;;-4.90;96.10;;;;;;4998607;28;20022;-83
2021/12/26 12:45:55;;;;;;;5.47;3.38;;;-4.90;96.30;;;;;;4992848;28;20149;-83
2021/12/26 12:48:31;;;;;;;5.38;3.45;;;-4.90;96.40;;;;;;4993350;28;20379;-82
2021/12/26 12:51:04;;;;;;;7.03;4.20;;;-4.90;96.50;;;;;;4979272;28;20026;-83
2021/12/26 12:53:57;;;;;;;6.22;3.58;;;-4.90;96.60;;;;;;4995664;28;20761;-82
2021/12/26 12:56:38;;;;;;;8.15;3.97;;;-4.90;96.70;;;;;;4993462;28;20038;-83
2021/12/26 12:59:18;;;;;;;6.60;5.43;;;-4.80;96.80;;;;;;4987355;28;20068;-84
2021/12/26 13:01:49;;;;;;;5.35;2.58;;;-4.80;96.90;;;;;;4976018;28;20034;-83
2021/12/26 13:04:18;;;;;;;6.72;4.45;;;-4.80;96.90;;;;;;4983284;28;20030;-84
2021/12/26 13:06:55;;;;;;;5.97;3.70;;;-4.80;96.90;;;;;;5000204;28;20135;-85